createdAt,value
2023-05-17T00:01:28.588Z,15.93
2023-05-17T00:03:56.633Z,15.89
2023-05-17T00:06:24.718Z,15.84
2023-05-17T00:08:52.719Z,15.78
2023-05-17T00:11:20.678Z,15.73
2023-05-17T00:13:48.647Z,15.69
2023-05-17T00:16:16.631Z,15.63
2023-05-17T00:18:46.222Z,15.66
2023-05-17T00:21:14.347Z,15.71
2023-05-17T00:23:42.485Z,15.68
2023-05-17T00:26:10.472Z,15.71
2023-05-17T00:28:38.450Z,15.70
2023-05-17T00:31:06.463Z,15.71
2023-05-17T00:33:34.480Z,15.70
2023-05-17T00:36:03.910Z,15.69
2023-05-17T00:38:31.849Z,15.66
2023-05-17T00:40:59.894Z,15.63
2023-05-17T00:43:27.876Z,15.66
2023-05-17T00:45:55.854Z,15.66
2023-05-17T00:48:25.727Z,15.65
2023-05-17T00:50:53.979Z,15.65
2023-05-17T00:53:23.355Z,15.53
2023-05-17T00:55:51.486Z,15.65
2023-05-17T00:58:19.477Z,15.66
2023-05-17T01:00:47.441Z,15.65
2023-05-17T01:03:18.801Z,15.63
2023-05-17T01:05:49.758Z,15.57
2023-05-17T01:08:17.802Z,15.50
2023-05-17T01:10:59.249Z,15.47
2023-05-17T01:13:29.297Z,15.43
2023-05-17T01:16:00.265Z,15.36
2023-05-17T01:18:31.661Z,15.35
2023-05-17T01:20:59.987Z,15.33
2023-05-17T01:23:42.230Z,15.31
2023-05-17T01:26:16.237Z,15.36
2023-05-17T01:28:47.388Z,15.36
2023-05-17T01:31:15.345Z,15.30
2023-05-17T01:33:43.462Z,15.17
2023-05-17T01:36:11.504Z,15.10
2023-05-17T01:38:39.470Z,15.06
2023-05-17T01:41:11.994Z,15.03
2023-05-17T01:43:43.167Z,14.98
2023-05-17T01:46:15.191Z,15.06
2023-05-17T01:48:46.102Z,15.08
2023-05-17T01:51:16.110Z,15.05
2023-05-17T01:53:46.852Z,15.01
2023-05-17T01:56:17.714Z,14.95
2023-05-17T01:58:46.833Z,14.93
2023-05-17T02:01:16.351Z,14.92
2023-05-17T02:03:44.260Z,14.90
2023-05-17T02:06:12.813Z,14.84
2023-05-17T02:08:40.837Z,14.72
2023-05-17T02:11:08.871Z,14.58
2023-05-17T02:13:36.770Z,14.51
2023-05-17T02:16:04.872Z,14.47
2023-05-17T02:18:35.501Z,14.45
2023-05-17T02:21:03.657Z,14.41
2023-05-17T02:23:31.600Z,14.38
2023-05-17T02:25:59.498Z,14.39
2023-05-17T02:28:28.366Z,14.36
2023-05-17T02:30:56.618Z,14.35
2023-05-17T02:33:24.703Z,14.32
2023-05-17T02:35:54.101Z,14.29
2023-05-17T02:38:22.065Z,14.25
2023-05-17T02:40:49.935Z,14.22
2023-05-17T02:43:17.840Z,14.20
2023-05-17T02:45:45.835Z,14.19
2023-05-17T02:48:13.758Z,14.20
2023-05-17T02:50:41.661Z,14.22
2023-05-17T02:53:11.494Z,14.23
2023-05-17T02:55:45.492Z,14.20
2023-05-17T02:58:13.431Z,14.23
2023-05-17T03:00:41.322Z,14.23
2023-05-17T03:03:09.346Z,14.22
2023-05-17T03:05:37.260Z,14.21
2023-05-17T03:08:05.296Z,14.18
2023-05-17T03:10:34.764Z,14.12
2023-05-17T03:13:02.946Z,14.09
2023-05-17T03:15:31.005Z,14.07
2023-05-17T03:20:27.118Z,14.01
2023-05-17T03:22:55.051Z,13.98
2023-05-17T03:25:23.031Z,13.97
2023-05-17T03:27:52.380Z,13.96
2023-05-17T03:30:20.474Z,13.98
2023-05-17T03:32:48.511Z,13.98
2023-05-17T03:35:16.434Z,14.03
2023-05-17T03:37:44.411Z,14.03
2023-05-17T03:40:12.872Z,14.01
2023-05-17T03:42:41.543Z,13.96
2023-05-17T03:45:11.762Z,13.92
2023-05-17T03:47:39.804Z,13.78
2023-05-17T03:50:08.916Z,13.80
2023-05-17T03:52:36.865Z,13.78
2023-05-17T03:55:05.238Z,13.74
2023-05-17T03:57:33.150Z,13.68
2023-05-17T04:00:01.062Z,13.60
2023-05-17T04:02:30.345Z,13.53
2023-05-17T04:04:58.276Z,13.48
2023-05-17T04:07:26.284Z,13.49
2023-05-17T04:09:54.476Z,13.50
2023-05-17T04:12:22.411Z,13.50
2023-05-17T04:14:50.402Z,13.53
2023-05-17T04:17:18.316Z,13.55
2023-05-17T04:19:47.700Z,13.54
2023-05-17T04:22:15.617Z,13.50
2023-05-17T04:24:43.863Z,13.45
2023-05-17T04:27:11.750Z,13.44
2023-05-17T04:29:40.979Z,13.40
2023-05-17T04:32:09.940Z,13.38
2023-05-17T04:34:37.819Z,13.38
2023-05-17T04:37:07.607Z,13.39
2023-05-17T04:39:35.835Z,13.39
2023-05-17T04:42:03.890Z,13.38
2023-05-17T04:44:31.776Z,13.34
2023-05-17T04:46:59.667Z,13.34
2023-05-17T04:49:28.406Z,13.36
2023-05-17T04:51:56.531Z,13.38
2023-05-17T04:54:26.075Z,13.38
2023-05-17T04:56:56.837Z,13.41
2023-05-17T04:59:25.161Z,13.16
2023-05-17T05:01:53.053Z,13.44
2023-05-17T05:04:21.197Z,13.58
2023-05-17T05:06:49.420Z,13.63
2023-05-17T05:09:17.522Z,13.68
2023-05-17T05:11:46.969Z,13.73
2023-05-17T05:14:15.212Z,13.77
2023-05-17T05:16:47.831Z,13.73
2023-05-17T05:19:16.959Z,13.86
2023-05-17T05:21:51.935Z,14.00
2023-05-17T05:24:20.120Z,14.11
2023-05-17T05:26:52.100Z,14.20
2023-05-17T05:29:20.030Z,14.32
2023-05-17T05:31:48.022Z,14.43
2023-05-17T05:34:15.915Z,14.48
2023-05-17T05:36:44.181Z,14.53
2023-05-17T05:39:12.670Z,14.58
2023-05-17T05:41:40.612Z,14.61
2023-05-17T05:44:10.007Z,14.66
2023-05-17T05:46:37.908Z,14.74
2023-05-17T05:49:05.887Z,14.81
2023-05-17T05:51:34.143Z,14.87
2023-05-17T05:54:02.180Z,14.89
2023-05-17T05:56:30.082Z,14.88
2023-05-17T05:58:58.600Z,14.88
2023-05-17T06:01:28.893Z,14.90
2023-05-17T06:03:56.953Z,14.95
2023-05-17T06:06:24.926Z,15.01
2023-05-17T06:08:59.444Z,15.06
2023-05-17T06:11:27.731Z,15.10
2023-05-17T06:13:55.830Z,15.14
2023-05-17T06:16:23.839Z,15.21
2023-05-17T06:18:53.199Z,15.20
2023-05-17T06:21:21.363Z,15.37
2023-05-17T06:23:49.280Z,15.46
2023-05-17T06:26:17.321Z,15.53
2023-05-17T06:28:45.205Z,15.66
2023-05-17T06:31:13.219Z,15.77
2023-05-17T06:33:41.390Z,15.86
2023-05-17T06:36:11.134Z,15.98
2023-05-17T06:38:39.052Z,16.09
2023-05-17T06:41:07.130Z,16.21
2023-05-17T06:43:36.487Z,16.29
2023-05-17T06:46:05.733Z,16.41
2023-05-17T06:48:33.761Z,16.53
2023-05-17T06:51:01.886Z,16.64
2023-05-17T06:53:31.222Z,16.71
2023-05-17T06:55:59.476Z,16.81
2023-05-17T06:58:27.747Z,16.87
2023-05-17T07:00:55.896Z,16.92
2023-05-17T07:03:24.059Z,17.00
2023-05-17T07:05:52.385Z,17.06
2023-05-17T07:08:21.164Z,17.14
2023-05-17T07:10:53.304Z,17.27
2023-05-17T07:13:21.682Z,17.36
2023-05-17T07:15:49.979Z,17.15
2023-05-17T07:18:18.188Z,17.46
2023-05-17T07:20:46.211Z,17.54
2023-05-17T07:23:14.729Z,17.52
2023-05-17T07:25:43.274Z,17.67
2023-05-17T07:28:12.940Z,17.65
2023-05-17T07:30:46.269Z,17.80
2023-05-17T07:33:15.181Z,17.88
2023-05-17T07:35:43.188Z,17.99
2023-05-17T07:38:11.835Z,18.11
2023-05-17T07:40:39.962Z,18.22
2023-05-17T07:43:08.037Z,18.13
2023-05-17T07:45:37.780Z,18.21
2023-05-17T07:48:06.384Z,18.26
2023-05-17T07:50:34.501Z,18.20
2023-05-17T07:53:02.879Z,18.23
2023-05-17T07:55:31.389Z,18.19
2023-05-17T07:58:01.206Z,18.11
2023-05-17T08:00:29.520Z,18.29
2023-05-17T08:02:59.142Z,18.39
2023-05-17T08:05:27.788Z,18.47
2023-05-17T08:07:59.608Z,18.49
2023-05-17T08:10:28.107Z,18.63
2023-05-17T08:12:56.392Z,18.65
2023-05-17T08:15:24.455Z,18.77
2023-05-17T08:17:52.948Z,18.83
2023-05-17T08:20:22.799Z,18.90
2023-05-17T08:22:51.069Z,19.00
2023-05-17T08:25:19.274Z,19.05
2023-05-17T08:27:47.419Z,19.19
2023-05-17T08:30:25.293Z,19.33
2023-05-17T08:32:57.233Z,19.47
2023-05-17T08:35:29.115Z,19.57
2023-05-17T08:37:57.306Z,19.67
2023-05-17T08:40:25.543Z,19.74
2023-05-17T08:42:53.938Z,19.82
2023-05-17T08:45:24.645Z,19.82
2023-05-17T08:47:54.575Z,19.99
2023-05-17T08:50:22.708Z,20.07
2023-05-17T08:52:52.766Z,20.13
2023-05-17T08:55:20.925Z,20.16
2023-05-17T08:57:49.635Z,20.25
2023-05-17T09:00:19.038Z,20.30
2023-05-17T09:02:47.434Z,20.26
2023-05-17T09:05:16.597Z,20.24
2023-05-17T09:07:45.128Z,20.23
2023-05-17T09:10:17.580Z,20.22
2023-05-17T09:12:45.966Z,20.34
2023-05-17T09:15:16.351Z,20.34
2023-05-17T09:17:44.496Z,20.38
2023-05-17T09:20:12.935Z,20.38
2023-05-17T09:22:41.535Z,20.38
2023-05-17T09:25:11.744Z,20.40
2023-05-17T09:27:41.600Z,20.54
2023-05-17T09:30:16.267Z,20.63
2023-05-17T09:35:29.680Z,20.82
2023-05-17T09:37:58.406Z,20.81
2023-05-17T09:40:26.831Z,20.87
2023-05-17T09:42:56.220Z,20.97
2023-05-17T09:45:24.760Z,21.08
2023-05-17T09:47:53.101Z,21.19
2023-05-17T09:50:22.041Z,21.26
2023-05-17T09:52:51.906Z,21.37
2023-05-17T09:55:20.181Z,21.44
2023-05-17T09:57:48.757Z,21.50
2023-05-17T10:00:19.735Z,21.52
2023-05-17T10:02:48.243Z,21.61
2023-05-17T10:05:16.718Z,21.59
2023-05-17T10:07:44.945Z,21.64
2023-05-17T10:10:16.411Z,21.65
2023-05-17T10:12:44.362Z,21.69
2023-05-17T10:15:12.410Z,21.74
2023-05-17T10:17:43.955Z,21.74
2023-05-17T10:20:14.506Z,21.74
2023-05-17T10:22:42.579Z,21.75
2023-05-17T10:25:11.564Z,21.82
2023-05-17T10:27:39.504Z,21.86
2023-05-17T10:30:09.231Z,21.89
2023-05-17T10:32:37.276Z,21.97
2023-05-17T10:35:12.057Z,22.02
2023-05-17T10:37:41.227Z,22.04
2023-05-17T10:40:14.447Z,22.05
2023-05-17T10:42:42.705Z,22.15
2023-05-17T10:45:11.711Z,22.27
2023-05-17T10:47:44.302Z,22.16
2023-05-17T10:50:17.251Z,22.38
2023-05-17T10:52:49.062Z,22.44
2023-05-17T10:55:20.305Z,22.50
2023-05-17T10:58:18.301Z,22.44
2023-05-17T11:00:48.330Z,22.59
2023-05-17T11:03:17.975Z,22.71
2023-05-17T11:06:23.306Z,22.82
2023-05-17T11:09:09.567Z,22.99
2023-05-17T11:11:37.647Z,23.10
2023-05-17T11:14:06.373Z,23.28
2023-05-17T11:16:37.085Z,23.39
2023-05-17T11:19:08.662Z,23.54
2023-05-17T11:21:39.538Z,23.70
2023-05-17T11:24:08.774Z,23.76
2023-05-17T11:26:38.822Z,23.63
2023-05-17T11:29:09.102Z,23.39
2023-05-17T11:31:37.662Z,23.34
2023-05-17T11:34:05.810Z,23.41
2023-05-17T11:36:35.385Z,23.72
2023-05-17T11:39:14.774Z,24.04
2023-05-17T11:41:49.672Z,24.24
2023-05-17T11:44:19.410Z,24.52
2023-05-17T11:46:47.327Z,24.77
2023-05-17T11:49:34.052Z,25.07
2023-05-17T11:52:04.040Z,25.37
2023-05-17T11:54:33.634Z,25.31
2023-05-17T11:57:02.926Z,25.72
2023-05-17T11:59:31.407Z,25.95
2023-05-17T12:02:01.280Z,26.01
2023-05-17T12:04:30.622Z,26.32
2023-05-17T12:07:04.024Z,26.44
2023-05-17T12:09:33.295Z,26.72
2023-05-17T12:12:05.188Z,27.07
2023-05-17T12:14:34.097Z,27.17
2023-05-17T12:17:02.647Z,27.27
2023-05-17T12:19:33.929Z,27.43
2023-05-17T12:22:12.592Z,27.64
2023-05-17T12:24:43.147Z,27.77
2023-05-17T12:27:11.658Z,27.78
2023-05-17T12:29:41.291Z,27.72
2023-05-17T12:32:10.008Z,27.84
2023-05-17T12:34:38.290Z,28.09
2023-05-17T12:37:10.436Z,28.38
2023-05-17T12:39:38.654Z,28.71
2023-05-17T12:42:08.772Z,28.98
2023-05-17T12:44:36.805Z,29.36
2023-05-17T12:47:05.075Z,29.58
2023-05-17T12:49:33.027Z,29.56
2023-05-17T12:52:08.226Z,29.49
2023-05-17T12:54:39.110Z,29.54
2023-05-17T12:57:16.248Z,29.73
2023-05-17T12:59:48.999Z,30.06
2023-05-17T13:02:20.703Z,30.37
2023-05-17T13:04:48.839Z,30.58
2023-05-17T13:07:22.839Z,30.70
2023-05-17T13:21:38.134Z,31.08
2023-05-17T13:24:06.243Z,31.05
2023-05-17T13:26:34.094Z,31.07
2023-05-17T13:29:01.931Z,30.97
2023-05-17T13:31:29.803Z,30.88
2023-05-17T13:33:57.751Z,30.88
2023-05-17T13:36:25.758Z,30.85
2023-05-17T13:38:56.769Z,30.88
2023-05-17T13:41:24.977Z,31.14
2023-05-17T13:43:52.816Z,31.38
2023-05-17T13:46:20.707Z,31.55
2023-05-17T13:48:48.808Z,31.72
2023-05-17T13:51:16.723Z,31.79
2023-05-17T13:53:44.621Z,31.79
2023-05-17T13:56:13.818Z,31.93
2023-05-17T13:58:41.634Z,32.11
2023-05-17T14:01:09.523Z,32.25
2023-05-17T14:03:37.490Z,32.32
2023-05-17T14:06:06.496Z,32.48
2023-05-17T14:08:36.823Z,32.80
2023-05-17T14:11:05.303Z,33.04
2023-05-17T14:13:34.977Z,33.06
2023-05-17T14:16:02.933Z,33.07
2023-05-17T14:18:32.926Z,33.09
2023-05-17T14:21:01.287Z,32.89
2023-05-17T14:23:29.240Z,32.69
2023-05-17T14:25:57.794Z,32.72
2023-05-17T14:28:25.909Z,32.60
2023-05-17T14:30:55.210Z,32.57
2023-05-17T14:33:23.257Z,32.56
2023-05-17T14:35:51.753Z,32.60
2023-05-17T14:38:20.485Z,32.43
2023-05-17T14:40:48.399Z,32.60
2023-05-17T14:43:16.451Z,32.52
2023-05-17T14:45:44.416Z,32.44
2023-05-17T14:48:13.798Z,32.24
2023-05-17T14:50:41.863Z,32.00
2023-05-17T14:53:09.840Z,31.89
2023-05-17T14:55:38.200Z,31.70
2023-05-17T14:58:07.061Z,31.77
2023-05-17T15:00:36.259Z,31.81
2023-05-17T15:03:05.048Z,31.92
2023-05-17T15:05:35.057Z,31.80
2023-05-17T15:08:03.780Z,31.88
2023-05-17T15:10:32.838Z,32.13
2023-05-17T15:13:01.804Z,32.42
2023-05-17T15:15:30.896Z,32.49
2023-05-17T15:18:00.493Z,32.41
2023-05-17T15:20:29.697Z,32.33
2023-05-17T15:22:59.995Z,32.30
2023-05-17T15:25:28.992Z,32.14
2023-05-17T15:27:57.919Z,32.00
2023-05-17T15:30:27.907Z,31.85
2023-05-17T15:32:57.587Z,31.69
2023-05-17T15:35:27.591Z,31.55
2023-05-17T15:37:56.769Z,31.48
2023-05-17T15:40:26.919Z,31.45
2023-05-17T15:42:55.714Z,31.59
2023-05-17T15:45:24.284Z,31.67
2023-05-17T15:47:53.895Z,31.70
2023-05-17T15:50:22.776Z,31.83
2023-05-17T15:52:54.802Z,31.81
2023-05-17T15:55:23.726Z,31.58
2023-05-17T15:57:53.976Z,31.33
2023-05-17T16:00:23.155Z,31.12
2023-05-17T16:02:51.344Z,31.02
2023-05-17T16:05:19.659Z,31.17
2023-05-17T16:07:48.261Z,31.22
2023-05-17T16:10:16.649Z,31.17
2023-05-17T16:12:45.063Z,31.04
2023-05-17T16:15:14.805Z,30.78
2023-05-17T16:17:42.892Z,30.53
2023-05-17T16:20:12.271Z,30.40
2023-05-17T16:22:43.341Z,30.50
2023-05-17T16:25:11.913Z,30.55
2023-05-17T16:27:39.967Z,30.56
2023-05-17T16:30:09.319Z,30.62
2023-05-17T16:32:38.680Z,30.66
2023-05-17T16:35:07.236Z,30.71
2023-05-17T16:37:35.171Z,30.61
2023-05-17T16:40:03.446Z,30.38
2023-05-17T16:42:31.558Z,30.06
2023-05-17T16:44:59.669Z,29.70
2023-05-17T16:47:28.088Z,29.46
2023-05-17T16:49:57.712Z,29.26
2023-05-17T16:52:25.847Z,29.24
2023-05-17T16:54:53.907Z,29.28
2023-05-17T16:57:21.873Z,29.40
2023-05-17T16:59:49.827Z,29.57
2023-05-17T17:02:17.859Z,29.88
2023-05-17T17:04:45.860Z,30.26
2023-05-17T17:07:15.171Z,30.44
2023-05-17T17:09:43.069Z,30.37
2023-05-17T17:12:23.640Z,30.33
2023-05-17T17:14:52.851Z,30.39
2023-05-17T17:17:20.810Z,30.37
2023-05-17T17:19:48.931Z,30.30
2023-05-17T17:22:18.298Z,29.95
2023-05-17T17:24:46.251Z,29.66
2023-05-17T17:27:14.155Z,29.46
2023-05-17T17:29:42.089Z,29.08
2023-05-17T17:32:10.177Z,28.70
2023-05-17T17:34:38.767Z,28.12
2023-05-17T17:37:07.037Z,27.52
2023-05-17T17:39:36.332Z,27.08
2023-05-17T17:42:04.369Z,26.60
2023-05-17T17:44:32.363Z,26.21
2023-05-17T17:47:00.418Z,25.78
2023-05-17T17:49:28.423Z,25.44
2023-05-17T17:51:58.068Z,25.24
2023-05-17T17:54:26.134Z,24.99
2023-05-17T17:56:55.953Z,24.72
2023-05-17T17:59:23.890Z,24.44
2023-05-17T18:01:51.900Z,24.14
2023-05-17T18:04:19.982Z,23.88
2023-05-17T18:06:48.564Z,23.78
2023-05-17T18:09:16.515Z,23.81
2023-05-17T18:11:44.403Z,24.07
2023-05-17T18:14:15.384Z,24.40
2023-05-17T18:16:43.407Z,24.65
2023-05-17T18:19:11.521Z,25.05
2023-05-17T18:21:39.466Z,25.50
2023-05-17T18:24:08.122Z,25.71
2023-05-17T18:26:36.100Z,25.38
2023-05-17T18:29:04.099Z,25.07
2023-05-17T18:31:33.457Z,24.75
2023-05-17T18:34:01.338Z,24.44
2023-05-17T18:36:29.298Z,24.07
2023-05-17T18:38:58.714Z,23.73
2023-05-17T18:41:27.125Z,23.46
2023-05-17T18:43:55.935Z,23.22
2023-05-17T18:46:23.868Z,22.97
2023-05-17T18:48:53.175Z,22.73
2023-05-17T18:51:21.102Z,22.51
2023-05-17T18:53:48.999Z,22.34
2023-05-17T18:56:22.699Z,22.16
2023-05-17T18:58:52.003Z,21.93
2023-05-17T19:01:20.055Z,21.68
2023-05-17T19:03:48.153Z,21.48
2023-05-17T19:06:17.865Z,21.38
2023-05-17T19:08:46.201Z,21.27
2023-05-17T19:11:14.246Z,21.16
2023-05-17T19:13:42.277Z,21.07
2023-05-17T19:16:10.198Z,20.98
2023-05-17T19:18:38.136Z,20.86
2023-05-17T19:21:06.161Z,20.75
2023-05-17T19:23:36.082Z,20.61
2023-05-17T19:26:04.054Z,20.54
2023-05-17T19:28:35.851Z,20.49
2023-05-17T19:31:03.873Z,20.42
2023-05-17T19:33:34.098Z,20.40
2023-05-17T19:36:02.291Z,20.33
2023-05-17T19:38:30.155Z,20.28
2023-05-17T19:40:59.734Z,20.25
2023-05-17T19:43:28.243Z,20.19
2023-05-17T19:45:56.187Z,20.12
2023-05-17T19:48:25.234Z,20.06
2023-05-17T19:50:56.136Z,20.02
2023-05-17T19:53:24.759Z,19.97
2023-05-17T19:55:54.794Z,19.95
2023-05-17T19:58:25.421Z,19.92
2023-05-17T20:00:53.363Z,19.89
2023-05-17T20:03:22.475Z,19.83
2023-05-17T20:05:50.921Z,19.78
2023-05-17T20:08:18.843Z,19.71
2023-05-17T20:10:46.834Z,19.61
2023-05-17T20:13:14.808Z,19.55
2023-05-17T20:15:44.084Z,19.51
2023-05-17T20:18:12.952Z,19.46
2023-05-17T20:20:40.833Z,19.41
2023-05-17T20:23:08.792Z,19.37
2023-05-17T20:25:38.228Z,19.37
2023-05-17T20:28:06.383Z,19.36
2023-05-17T20:30:34.306Z,19.36
2023-05-17T20:33:03.758Z,19.36
2023-05-17T20:35:31.759Z,19.36
2023-05-17T20:37:59.630Z,19.35
2023-05-17T20:40:27.863Z,19.33
2023-05-17T20:42:56.559Z,19.31
2023-05-17T20:45:24.466Z,19.29
2023-05-17T20:47:52.684Z,19.26
2023-05-17T20:50:22.087Z,19.23
2023-05-17T20:52:50.041Z,19.21
2023-05-17T20:55:17.953Z,19.16
2023-05-17T20:57:46.359Z,19.13
2023-05-17T21:00:17.065Z,19.11
2023-05-17T21:02:45.081Z,19.11
2023-05-17T21:05:13.458Z,19.11
2023-05-17T21:07:42.773Z,19.12
2023-05-17T21:10:10.956Z,19.10
2023-05-17T21:12:38.873Z,19.07
2023-05-17T21:15:15.654Z,19.05
2023-05-17T21:17:44.847Z,19.05
2023-05-17T21:20:14.028Z,18.98
2023-05-17T21:22:43.332Z,18.97
2023-05-17T21:25:11.558Z,18.99
2023-05-17T21:27:39.702Z,18.99
2023-05-17T21:30:09.091Z,19.00
2023-05-17T21:32:37.091Z,18.97
2023-05-17T21:35:06.063Z,18.96
2023-05-17T21:37:33.977Z,18.94
2023-05-17T21:40:03.332Z,18.91
2023-05-17T21:42:31.242Z,18.90
2023-05-17T21:44:59.161Z,18.81
2023-05-17T21:47:27.112Z,18.90
2023-05-17T21:49:55.214Z,18.90
2023-05-17T21:52:23.137Z,18.91
2023-05-17T21:54:51.052Z,18.94
2023-05-17T21:57:21.227Z,18.92
2023-05-17T21:59:49.208Z,18.93
2023-05-17T22:02:17.342Z,18.92
2023-05-17T22:04:45.306Z,18.92
2023-05-17T22:07:14.097Z,18.93
2023-05-17T22:09:42.052Z,18.82
2023-05-17T22:12:12.216Z,18.94
2023-05-17T22:14:44.528Z,18.93
2023-05-17T22:17:12.468Z,18.91
2023-05-17T22:19:41.664Z,18.90
2023-05-17T22:22:10.202Z,18.84
2023-05-17T22:24:38.198Z,18.79
2023-05-17T22:27:06.372Z,18.76
2023-05-17T22:29:34.399Z,18.69
2023-05-17T22:32:03.788Z,18.66
2023-05-17T22:34:31.939Z,18.60
2023-05-17T22:36:59.960Z,18.51
2023-05-17T22:39:27.915Z,18.43
2023-05-17T22:41:55.844Z,18.40
2023-05-17T22:44:23.727Z,18.33
2023-05-17T22:46:51.752Z,18.27
2023-05-17T22:49:21.067Z,18.24
2023-05-17T22:51:48.955Z,18.20
2023-05-17T22:54:16.856Z,18.19
2023-05-17T22:56:44.784Z,18.16
2023-05-17T22:59:12.830Z,18.11
2023-05-17T23:01:40.923Z,18.04
2023-05-17T23:04:08.981Z,17.97
2023-05-17T23:06:38.396Z,17.89
2023-05-17T23:09:06.364Z,17.83
2023-05-17T23:11:35.496Z,17.73
2023-05-17T23:14:03.423Z,17.72
2023-05-17T23:16:31.409Z,17.66
2023-05-17T23:19:00.245Z,17.62
2023-05-17T23:21:28.194Z,17.62
2023-05-17T23:23:57.482Z,17.60
2023-05-17T23:26:25.582Z,17.59
2023-05-17T23:28:53.634Z,17.55
2023-05-17T23:31:21.733Z,17.51
2023-05-17T23:33:50.330Z,17.44
2023-05-17T23:36:18.333Z,17.40
2023-05-17T23:38:46.401Z,17.34
2023-05-17T23:41:18.202Z,17.32
2023-05-17T23:43:46.908Z,17.30
2023-05-17T23:46:19.961Z,17.27
2023-05-17T23:48:50.609Z,17.26
2023-05-17T23:51:19.874Z,17.21
2023-05-17T23:53:49.071Z,17.15
2023-05-17T23:56:18.624Z,17.15
2023-05-17T23:58:46.652Z,17.14
